Time;durP1;ratioP1;P1;durP2;ratioP2;P2;SDS_P1;SDS_P2;PMS_P1;PMS_P2;Temp;Humidity;BMP_temperature;BMP_pressure;BME280_temperature;BME280_humidity;BME280_pressure;Samples;Min_cycle;Max_cycle;Signal;HPM_P1;HPM_P2
2023/12/29 00:01:42;;;;;;;77.15;52.50;;;;;;;0.77;100.00;100810.88;5608293;31;34115;-74
2023/12/29 00:04:45;;;;;;;68.32;49.58;;;;;;;0.76;100.00;100822.25;5609049;31;34803;-74
2023/12/29 00:07:48;;;;;;;77.15;54.13;;;;;;;0.85;100.00;100824.28;5608108;31;34315;-74
2023/12/29 00:10:51;;;;;;;83.03;55.58;;;;;;;0.91;100.00;100816.06;5608120;31;34138;-74
2023/12/29 00:13:54;;;;;;;78.62;53.50;;;;;;;0.86;100.00;100820.75;5608119;31;34096;-74
2023/12/29 00:16:57;;;;;;;85.07;57.53;;;;;;;0.80;100.00;100810.66;5609168;31;34122;-74
2023/12/29 00:20:00;;;;;;;71.28;52.03;;;;;;;0.80;100.00;100808.06;5608819;31;34961;-74
2023/12/29 00:23:04;;;;;;;76.55;53.10;;;;;;;0.84;100.00;100799.09;5608771;31;34336;-74
2023/12/29 00:26:06;;;;;;;77.20;52.53;;;;;;;0.88;100.00;100796.19;5608847;31;34010;-74
2023/12/29 00:29:10;;;;;;;78.65;53.65;;;;;;;0.90;100.00;100788.28;5608851;31;34004;-74
2023/12/29 00:32:13;;;;;;;76.05;52.55;;;;;;;0.94;100.00;100781.06;5608713;31;34905;-74
2023/12/29 00:35:17;;;;;;;74.82;52.55;;;;;;;0.96;100.00;100779.22;5608720;31;35179;-74
2023/12/29 00:38:20;;;;;;;77.25;52.97;;;;;;;0.97;100.00;100779.09;5608607;31;34255;-74
2023/12/29 00:41:23;;;;;;;73.22;49.88;;;;;;;1.02;100.00;100790.09;5608701;31;34242;-74
2023/12/29 00:44:26;;;;;;;75.15;53.53;;;;;;;1.02;100.00;100789.25;5608606;31;34279;-74
2023/12/29 00:47:29;;;;;;;76.62;51.47;;;;;;;1.10;100.00;100805.31;5608659;31;33976;-74
2023/12/29 00:50:32;;;;;;;79.03;54.90;;;;;;;1.13;100.00;100794.66;5608855;31;34029;-74
2023/12/29 00:53:35;;;;;;;77.47;54.03;;;;;;;1.08;100.00;100781.88;5608552;31;34014;-74
2023/12/29 00:56:38;;;;;;;81.93;57.38;;;;;;;1.08;100.00;100784.50;5608281;31;34235;-74
2023/12/29 00:59:41;;;;;;;76.20;53.05;;;;;;;1.19;100.00;100783.81;5608634;31;33997;-74
2023/12/29 01:02:45;;;;;;;73.40;53.53;;;;;;;1.23;100.00;100782.66;5607718;31;34262;-74
2023/12/29 01:05:48;;;;;;;86.75;56.90;;;;;;;1.05;100.00;100773.41;5608421;31;35016;-74
2023/12/29 01:08:51;;;;;;;83.28;58.13;;;;;;;1.02;100.00;100777.03;5608476;31;34905;-74
2023/12/29 01:11:55;;;;;;;79.22;56.63;;;;;;;1.02;100.00;100787.47;5608307;31;35080;-73
2023/12/29 01:14:58;;;;;;;93.32;63.33;;;;;;;0.97;100.00;100791.34;5608646;31;34149;-73
2023/12/29 01:18:01;;;;;;;94.53;63.70;;;;;;;1.08;100.00;100786.25;5607989;31;34138;-73
2023/12/29 01:21:05;;;;;;;92.05;65.47;;;;;;;1.05;100.00;100791.69;5608365;31;34681;-74
2023/12/29 01:24:08;;;;;;;85.47;59.80;;;;;;;0.97;100.00;100786.13;5607447;31;34738;-74
2023/12/29 01:27:10;;;;;;;84.50;60.08;;;;;;;0.96;100.00;100780.06;5608166;31;33851;-74
2023/12/29 01:30:14;;;;;;;84.05;59.45;;;;;;;1.00;100.00;100788.53;5608058;31;33949;-74
2023/12/29 01:33:16;;;;;;;85.28;60.58;;;;;;;1.03;100.00;100786.56;5608086;31;34297;-74
2023/12/29 01:36:19;;;;;;;86.50;61.42;;;;;;;0.90;100.00;100788.28;5607909;31;33994;-74
2023/12/29 01:39:27;;;;;;;84.05;61.20;;;;;;;0.91;100.00;100771.66;5607829;31;34982;-74
2023/12/29 01:42:31;;;;;;;85.95;59.53;;;;;;;0.92;100.00;100777.72;5607923;31;34089;-74
2023/12/29 01:45:34;;;;;;;81.40;58.28;;;;;;;0.91;100.00;100766.44;5607707;31;34012;-74
2023/12/29 01:48:51;;;;;;;87.85;60.75;;;;;;;0.89;100.00;100763.09;5608190;31;34216;-74
2023/12/29 01:51:57;;;;;;;86.35;58.72;;;;;;;0.86;100.00;100763.28;5607820;31;34028;-74
2023/12/29 01:55:00;;;;;;;86.25;59.75;;;;;;;0.85;100.00;100772.03;5607024;31;34080;-73
2023/12/29 01:58:03;;;;;;;86.60;60.85;;;;;;;0.86;100.00;100765.91;5607605;31;34000;-73
2023/12/29 02:01:08;;;;;;;87.80;61.85;;;;;;;0.86;100.00;100758.91;5607591;31;35040;-73
2023/12/29 02:04:12;;;;;;;84.68;58.78;;;;;;;0.90;100.00;100749.09;5607391;31;34430;-74
2023/12/29 02:07:15;;;;;;;84.62;59.60;;;;;;;0.89;100.00;100739.56;5608501;31;33948;-74
2023/12/29 02:10:21;;;;;;;90.05;60.58;;;;;;;0.93;100.00;100748.87;5610084;31;34216;-73
2023/12/29 02:13:24;;;;;;;80.12;56.70;;;;;;;0.93;100.00;100748.87;5609744;31;34303;-73
2023/12/29 02:16:39;;;;;;;84.00;54.10;;;;;;;0.96;100.00;100748.72;5609838;31;34727;-73
2023/12/29 02:19:46;;;;;;;83.75;55.42;;;;;;;1.00;100.00;100744.12;5610002;31;34254;-74
2023/12/29 02:22:50;;;;;;;75.70;53.53;;;;;;;1.03;100.00;100755.19;5609468;31;34106;-74
2023/12/29 02:25:58;;;;;;;75.68;53.33;;;;;;;1.04;100.00;100749.03;5609811;31;34003;-74
2023/12/29 02:29:05;;;;;;;77.12;52.15;;;;;;;1.10;100.00;100756.50;5609827;31;34102;-74
2023/12/29 02:32:13;;;;;;;76.75;51.88;;;;;;;1.11;100.00;100744.28;5609077;31;34215;-75
2023/12/29 02:35:24;;;;;;;72.60;52.65;;;;;;;1.07;100.00;100748.00;5609847;31;34137;-74
2023/12/29 02:38:29;;;;;;;73.75;52.83;;;;;;;1.02;100.00;100729.16;5610091;31;34037;-74
2023/12/29 02:41:33;;;;;;;73.03;53.42;;;;;;;1.03;100.00;100725.63;5609904;31;34291;-74
2023/12/29 02:44:36;;;;;;;74.22;53.08;;;;;;;1.03;100.00;100725.63;5608932;31;34774;-74
2023/12/29 02:47:39;;;;;;;81.70;53.45;;;;;;;1.03;100.00;100725.63;5609921;31;34028;-74
2023/12/29 02:50:42;;;;;;;76.50;52.33;;;;;;;1.02;100.00;100731.78;5609653;31;34036;-73
2023/12/29 02:53:44;;;;;;;75.85;52.28;;;;;;;1.03;100.00;100729.06;5608766;31;34647;-73
2023/12/29 02:56:48;;;;;;;82.37;54.42;;;;;;;1.07;100.00;100729.72;5609366;31;34720;-73
2023/12/29 02:59:51;;;;;;;78.95;53.63;;;;;;;1.08;100.00;100731.41;5609383;31;34305;-73
2023/12/29 03:02:55;;;;;;;85.05;57.62;;;;;;;1.13;100.00;100732.78;5609401;31;34108;-73
2023/12/29 03:05:58;;;;;;;88.32;63.20;;;;;;;1.12;100.00;100730.25;5609280;31;34399;-72
2023/12/29 03:09:01;;;;;;;90.70;64.72;;;;;;;1.09;100.00;100718.25;5608560;31;34070;-73
2023/12/29 03:12:04;;;;;;;92.05;65.07;;;;;;;1.12;100.00;100704.97;5609146;31;34520;-74
2023/12/29 03:15:09;;;;;;;92.95;66.10;;;;;;;1.14;100.00;100699.66;5609144;31;34221;-73
2023/12/29 03:18:12;;;;;;;87.75;64.90;;;;;;;1.12;100.00;100706.75;5609124;31;34538;-73
2023/12/29 03:21:15;;;;;;;91.90;63.40;;;;;;;1.09;100.00;100715.63;5608424;31;34831;-72
2023/12/29 03:24:18;;;;;;;92.80;64.55;;;;;;;1.14;100.00;100710.94;5609629;31;34072;-73
2023/12/29 03:27:23;;;;;;;95.57;65.68;;;;;;;1.14;100.00;100707.50;5609289;31;34822;-74
2023/12/29 03:30:26;;;;;;;84.05;60.17;;;;;;;1.14;100.00;100707.50;5609504;31;34784;-74
2023/12/29 03:33:30;;;;;;;84.47;59.00;;;;;;;1.32;100.00;100708.88;5609186;31;34082;-74
2023/12/29 03:36:34;;;;;;;81.03;56.42;;;;;;;1.24;100.00;100709.41;5609252;31;35446;-74
2023/12/29 03:39:37;;;;;;;77.10;54.03;;;;;;;1.35;100.00;100707.87;5609266;31;34193;-73
2023/12/29 03:42:40;;;;;;;81.87;55.38;;;;;;;1.24;100.00;100704.19;5609119;31;34374;-74
2023/12/29 03:45:43;;;;;;;80.55;54.47;;;;;;;1.17;100.00;100705.50;5609062;31;34133;-74
2023/12/29 03:48:47;;;;;;;81.53;58.22;;;;;;;1.21;100.00;100711.41;5609058;31;34721;-74
2023/12/29 03:51:50;;;;;;;87.18;62.22;;;;;;;1.14;100.00;100700.50;5609141;31;33432;-74
2023/12/29 03:54:53;;;;;;;82.45;60.08;;;;;;;1.07;100.00;100711.41;5609375;31;33455;-74
2023/12/29 03:57:56;;;;;;;96.90;67.20;;;;;;;1.04;100.00;100720.31;5608383;31;33288;-74
2023/12/29 04:01:00;;;;;;;88.65;64.50;;;;;;;0.99;100.00;100722.38;5609020;31;34771;-74
2023/12/29 04:04:03;;;;;;;94.10;68.22;;;;;;;0.94;100.00;100721.84;5609107;31;34115;-73
2023/12/29 04:07:06;;;;;;;107.57;74.93;;;;;;;0.90;100.00;100720.34;5609061;31;34213;-74
2023/12/29 04:10:10;;;;;;;131.98;84.15;;;;;;;0.86;100.00;100724.94;5608872;31;34019;-73
2023/12/29 04:13:13;;;;;;;144.13;86.25;;;;;;;0.80;100.00;100724.50;5608872;31;34518;-74
2023/12/29 04:16:18;;;;;;;168.13;94.53;;;;;;;0.78;100.00;100727.19;5608656;31;34174;-73
2023/12/29 04:19:20;;;;;;;162.25;92.28;;;;;;;0.66;100.00;100725.37;5608781;31;32807;-73
2023/12/29 04:22:24;;;;;;;169.65;93.75;;;;;;;0.65;100.00;100718.47;5607870;31;34134;-74
2023/12/29 04:25:26;;;;;;;188.20;100.43;;;;;;;0.59;100.00;100731.06;5608700;31;34399;-73
2023/12/29 04:28:29;;;;;;;160.85;91.55;;;;;;;0.55;100.00;100730.41;5608823;31;34019;-73
2023/12/29 04:31:32;;;;;;;178.62;99.32;;;;;;;0.55;100.00;100726.97;5608044;31;34774;-73
2023/12/29 04:34:36;;;;;;;156.23;92.45;;;;;;;0.63;100.00;100727.34;5608556;31;34509;-74
2023/12/29 04:37:39;;;;;;;172.93;98.20;;;;;;;0.64;100.00;100721.16;5608505;31;34309;-73
2023/12/29 04:40:42;;;;;;;173.98;101.75;;;;;;;0.57;100.00;100730.31;5608599;31;34809;-73
2023/12/29 04:43:44;;;;;;;182.65;104.53;;;;;;;0.52;100.00;100728.00;5608424;31;34265;-74
2023/12/29 04:46:47;;;;;;;206.23;108.15;;;;;;;0.54;100.00;100715.69;5608387;31;34713;-73
2023/12/29 04:49:50;;;;;;;206.43;104.35;;;;;;;0.50;100.00;100705.53;5608913;31;34056;-74
2023/12/29 04:52:53;;;;;;;292.05;122.30;;;;;;;0.46;100.00;100714.47;5608416;31;34101;-74
2023/12/29 04:55:56;;;;;;;298.15;121.28;;;;;;;0.39;100.00;100717.47;5607564;31;34156;-73
2023/12/29 04:59:00;;;;;;;273.90;123.78;;;;;;;0.37;100.00;100721.97;5608419;31;34682;-73
2023/12/29 05:02:03;;;;;;;255.05;115.90;;;;;;;0.48;100.00;100723.91;5608422;31;34763;-74
2023/12/29 05:05:06;;;;;;;294.45;123.82;;;;;;;0.55;100.00;100724.34;5608375;31;34296;-74
2023/12/29 05:08:09;;;;;;;323.15;114.70;;;;;;;0.56;100.00;100719.03;5608591;31;34073;-74
2023/12/29 05:11:12;;;;;;;364.02;126.80;;;;;;;0.57;100.00;100722.50;5608327;31;34076;-74
2023/12/29 05:14:16;;;;;;;400.48;127.68;;;;;;;0.62;100.00;100720.44;5607944;31;34251;-74
2023/12/29 05:17:19;;;;;;;387.42;120.95;;;;;;;0.62;100.00;100736.94;5608236;31;34958;-74
2023/12/29 05:20:22;;;;;;;278.85;113.55;;;;;;;0.50;100.00;100718.56;5607826;31;34337;-74
2023/12/29 05:23:26;;;;;;;245.98;110.43;;;;;;;0.58;100.00;100722.38;5608078;31;34749;-74
2023/12/29 05:26:29;;;;;;;287.00;114.22;;;;;;;0.53;100.00;100740.12;5608063;31;34800;-74
2023/12/29 05:29:32;;;;;;;219.75;104.18;;;;;;;0.50;100.00;100734.22;5608058;31;34049;-74
2023/12/29 05:32:35;;;;;;;293.75;105.45;;;;;;;0.43;100.00;100739.84;5607199;31;34143;-74
2023/12/29 05:35:38;;;;;;;260.15;110.45;;;;;;;0.48;100.00;100741.34;5607930;31;34710;-74
2023/12/29 05:38:45;;;;;;;548.92;140.95;;;;;;;0.51;100.00;100743.75;5607913;31;34080;-74
2023/12/29 05:41:48;;;;;;;679.70;160.43;;;;;;;0.66;100.00;100746.25;5606692;31;34646;-74
2023/12/29 05:44:51;;;;;;;313.90;99.53;;;;;;;0.61;100.00;100750.91;5607708;31;35109;-74
2023/12/29 05:47:54;;;;;;;796.72;171.98;;;;;;;0.62;100.00;100747.38;5607089;31;33976;-74
2023/12/29 05:50:57;;;;;;;199.93;92.18;;;;;;;0.69;100.00;100755.66;5607987;31;34072;-74
2023/12/29 05:54:00;;;;;;;318.90;105.47;;;;;;;0.73;100.00;100759.75;5607743;31;35149;-73
2023/12/29 05:57:03;;;;;;;263.67;96.37;;;;;;;0.48;100.00;100755.22;5607701;31;34757;-73
2023/12/29 06:00:08;;;;;;;325.70;106.70;;;;;;;0.43;100.00;100752.06;5606678;31;34200;-74
2023/12/29 06:03:13;;;;;;;286.52;102.22;;;;;;;0.54;100.00;100754.84;5606846;31;34086;-74
2023/12/29 06:06:17;;;;;;;206.93;88.78;;;;;;;0.56;100.00;100750.38;5607389;31;34664;-74
2023/12/29 06:09:20;;;;;;;162.57;81.37;;;;;;;0.56;100.00;100762.56;5607468;31;35521;-74
2023/12/29 06:12:24;;;;;;;235.43;93.43;;;;;;;0.58;100.00;100769.37;5607312;31;34135;-74
2023/12/29 06:15:27;;;;;;;195.98;80.20;;;;;;;0.55;100.00;100766.97;5606940;31;34372;-74
2023/12/29 06:18:30;;;;;;;223.15;87.82;;;;;;;0.59;100.00;100762.37;5606426;31;35576;-74
2023/12/29 06:21:33;;;;;;;275.17;92.68;;;;;;;0.58;100.00;100765.94;5607436;31;34833;-74
2023/12/29 06:24:37;;;;;;;329.42;108.00;;;;;;;0.50;100.00;100762.94;5607035;31;34182;-75
2023/12/29 06:27:40;;;;;;;264.25;97.97;;;;;;;0.38;100.00;100751.50;5607172;31;34209;-75
2023/12/29 06:30:43;;;;;;;396.90;117.00;;;;;;;0.41;100.00;100749.53;5607306;31;34064;-74
2023/12/29 06:33:47;;;;;;;277.75;103.65;;;;;;;0.66;100.00;100754.09;5607225;31;34643;-74
2023/12/29 06:36:50;;;;;;;316.67;105.97;;;;;;;0.60;100.00;100753.62;5607031;31;34080;-75
2023/12/29 06:39:53;;;;;;;197.98;92.15;;;;;;;0.55;100.00;100755.69;5607125;31;34928;-75
2023/12/29 06:42:57;;;;;;;195.75;92.68;;;;;;;0.58;100.00;100761.53;5606539;31;35111;-74
2023/12/29 06:46:00;;;;;;;180.48;91.22;;;;;;;0.58;100.00;100755.50;5606394;31;35075;-73
2023/12/29 06:49:04;;;;;;;213.02;92.85;;;;;;;0.67;100.00;100765.38;5606698;31;34071;-74
2023/12/29 06:52:07;;;;;;;267.17;101.75;;;;;;;0.64;100.00;100766.37;5607063;31;34265;-74
2023/12/29 06:55:10;;;;;;;223.32;94.35;;;;;;;0.66;100.00;100761.91;5609642;31;34173;-75
2023/12/29 06:58:13;;;;;;;217.77;96.50;;;;;;;0.60;100.00;100754.47;5609824;31;34770;-75
2023/12/29 07:01:16;;;;;;;214.45;95.53;;;;;;;0.73;100.00;100759.75;5608676;31;34280;-75
2023/12/29 07:04:19;;;;;;;242.75;102.00;;;;;;;0.75;100.00;100756.13;5609398;31;33973;-74
2023/12/29 07:07:23;;;;;;;161.32;87.40;;;;;;;0.76;100.00;100755.19;5609720;31;34384;-75
2023/12/29 07:10:25;;;;;;;244.52;92.88;;;;;;;0.72;100.00;100763.31;5609576;31;33943;-75
2023/12/29 07:13:28;;;;;;;239.57;101.60;;;;;;;0.74;100.00;100758.81;5609312;31;34215;-75
2023/12/29 07:16:31;;;;;;;407.17;115.40;;;;;;;0.71;100.00;100777.28;5609181;31;34250;-75
2023/12/29 07:19:36;;;;;;;457.08;133.82;;;;;;;0.81;100.00;100762.72;5608813;31;34673;-74
2023/12/29 07:22:40;;;;;;;205.82;99.47;;;;;;;0.92;100.00;100760.25;5609409;31;34381;-75
2023/12/29 07:25:43;;;;;;;181.10;88.65;;;;;;;1.04;100.00;100756.88;5609371;31;34730;-75
2023/12/29 07:28:46;;;;;;;221.60;94.70;;;;;;;1.10;100.00;100766.94;5608485;31;34811;-75
2023/12/29 07:31:49;;;;;;;235.30;97.10;;;;;;;1.11;100.00;100759.97;5609234;31;34363;-74
2023/12/29 07:34:52;;;;;;;226.00;97.70;;;;;;;1.12;100.00;100766.84;5609196;31;34137;-74
2023/12/29 07:37:55;;;;;;;204.68;92.70;;;;;;;0.94;100.00;100766.25;5609051;31;33966;-75
2023/12/29 07:40:59;;;;;;;210.35;89.75;;;;;;;1.09;100.00;100760.03;5609166;31;35050;-75
2023/12/29 07:44:03;;;;;;;170.02;82.07;;;;;;;0.81;100.00;100760.13;5609366;31;35106;-75
2023/12/29 07:47:06;;;;;;;148.77;79.45;;;;;;;0.69;100.00;100750.44;5608186;31;34273;-74
2023/12/29 07:50:09;;;;;;;154.85;81.47;;;;;;;0.79;100.00;100751.53;5609274;31;34015;-75
2023/12/29 07:53:12;;;;;;;155.55;79.22;;;;;;;0.97;100.00;100758.19;5609057;31;34227;-74
2023/12/29 07:56:15;;;;;;;356.45;116.25;;;;;;;1.04;100.00;100759.50;5608915;31;34062;-74
2023/12/29 07:59:18;;;;;;;392.90;111.47;;;;;;;1.16;100.00;100758.69;5608209;31;34350;-74
2023/12/29 08:02:21;;;;;;;150.30;80.45;;;;;;;1.22;100.00;100760.94;5608967;31;34338;-75
2023/12/29 08:05:24;;;;;;;179.30;85.82;;;;;;;1.51;100.00;100760.78;5608038;31;34101;-75
2023/12/29 08:08:27;;;;;;;180.05;82.97;;;;;;;1.70;100.00;100758.63;5607711;31;34086;-74
2023/12/29 08:11:30;;;;;;;171.70;85.25;;;;;;;1.88;100.00;100754.81;5609217;31;34423;-75
2023/12/29 08:14:34;;;;;;;171.57;77.60;;;;;;;1.79;100.00;100757.22;5608786;31;34249;-74
2023/12/29 08:17:38;;;;;;;154.60;81.05;;;;;;;1.98;100.00;100760.25;5608154;31;34247;-75
2023/12/29 08:20:40;;;;;;;171.85;86.65;;;;;;;1.84;100.00;100765.59;5608756;31;34253;-74
2023/12/29 08:23:44;;;;;;;160.73;79.75;;;;;;;1.79;100.00;100772.91;5608690;31;35178;-74
2023/12/29 08:26:47;;;;;;;145.98;80.18;;;;;;;1.56;100.00;100770.03;5607853;31;34125;-74
2023/12/29 08:29:50;;;;;;;173.60;88.78;;;;;;;1.75;100.00;100770.47;5608497;31;34034;-74
2023/12/29 08:32:53;;;;;;;146.65;80.38;;;;;;;1.96;100.00;100775.22;5608508;31;34244;-74
2023/12/29 08:36:00;;;;;;;119.82;72.90;;;;;;;2.07;100.00;100773.56;5608712;31;35100;-74
2023/12/29 08:39:03;;;;;;;146.25;80.30;;;;;;;2.00;100.00;100767.06;5608563;31;34516;-74
2023/12/29 08:42:06;;;;;;;112.20;71.15;;;;;;;2.21;100.00;100774.41;5608191;31;34880;-74
2023/12/29 08:45:09;;;;;;;112.53;71.47;;;;;;;2.29;100.00;100772.06;5608136;31;34047;-74
2023/12/29 08:48:12;;;;;;;101.22;65.87;;;;;;;2.24;100.00;100768.94;5608200;31;34255;-74
2023/12/29 08:51:15;;;;;;;91.03;61.75;;;;;;;2.51;100.00;100769.66;5608412;31;34011;-74
2023/12/29 08:54:18;;;;;;;88.43;61.72;;;;;;;2.46;100.00;100770.00;5608210;31;34003;-73
2023/12/29 08:57:21;;;;;;;89.47;62.42;;;;;;;2.36;100.00;100768.13;5608259;31;35128;-73
2023/12/29 09:00:24;;;;;;;83.87;58.45;;;;;;;2.39;100.00;100763.50;5608350;31;34278;-73
2023/12/29 09:03:27;;;;;;;76.82;56.25;;;;;;;2.59;100.00;100768.19;5608249;31;34129;-73
2023/12/29 09:06:31;;;;;;;76.32;53.75;;;;;;;2.93;100.00;100776.28;5608084;31;34172;-73
2023/12/29 09:09:34;;;;;;;68.62;51.60;;;;;;;3.16;100.00;100779.84;5608296;31;34057;-73
2023/12/29 09:12:38;;;;;;;69.32;51.40;;;;;;;3.16;100.00;100772.00;5608450;31;34002;-73
2023/12/29 09:15:41;;;;;;;69.87;50.42;;;;;;;2.83;100.00;100783.13;5608005;31;34294;-73
2023/12/29 09:18:45;;;;;;;70.20;50.42;;;;;;;2.79;100.00;100763.31;5607997;31;34672;-73
2023/12/29 09:21:48;;;;;;;67.87;47.80;;;;;;;2.90;100.00;100766.03;5608206;31;34039;-73
2023/12/29 09:24:51;;;;;;;59.63;45.72;;;;;;;3.14;100.00;100764.25;5608153;31;34050;-74
2023/12/29 09:27:54;;;;;;;60.50;45.47;;;;;;;3.48;100.00;100773.97;5608311;31;33996;-74
2023/12/29 09:30:57;;;;;;;59.50;44.85;;;;;;;3.74;100.00;100779.87;5607683;31;34107;-73
2023/12/29 09:34:00;;;;;;;58.30;43.80;;;;;;;3.82;100.00;100774.09;5608006;31;34751;-72
2023/12/29 09:37:04;;;;;;;57.53;42.80;;;;;;;3.59;100.00;100767.91;5607821;31;34135;-73
2023/12/29 09:40:09;;;;;;;58.47;43.63;;;;;;;3.68;100.00;100766.41;5607926;31;34347;-75
2023/12/29 09:43:13;;;;;;;55.55;43.87;;;;;;;3.68;100.00;100767.22;5607764;31;35087;-73
2023/12/29 09:46:21;;;;;;;52.70;42.38;;;;;;;3.72;100.00;100770.47;5607804;31;34786;-74
2023/12/29 09:49:27;;;;;;;54.08;41.33;;;;;;;3.70;100.00;100775.81;5608059;31;34569;-73
2023/12/29 09:52:30;;;;;;;52.13;41.33;;;;;;;3.55;100.00;100760.38;5607752;31;34694;-73
2023/12/29 09:55:34;;;;;;;53.00;42.67;;;;;;;3.61;100.00;100757.31;5607695;31;34138;-73
2023/12/29 09:58:37;;;;;;;53.38;43.08;;;;;;;3.62;100.00;100754.56;5607501;31;32962;-73
2023/12/29 10:01:42;;;;;;;52.83;42.50;;;;;;;3.66;100.00;100761.25;5607426;31;34224;-73
2023/12/29 10:04:45;;;;;;;51.80;40.60;;;;;;;3.66;100.00;100749.94;5607606;31;34238;-74
2023/12/29 10:07:50;;;;;;;54.97;42.70;;;;;;;3.79;100.00;100748.87;5606873;31;34141;-73
2023/12/29 10:10:57;;;;;;;54.55;40.83;;;;;;;3.83;100.00;100739.00;5606915;31;34173;-73
2023/12/29 10:14:17;;;;;;;50.03;40.88;;;;;;;3.85;100.00;100731.84;5607048;31;34297;-73
2023/12/29 10:17:41;;;;;;;49.80;40.42;;;;;;;3.85;100.00;100729.22;5606862;31;34585;-73
2023/12/29 10:20:59;;;;;;;54.15;41.30;;;;;;;3.95;100.00;100724.94;5607244;31;34252;-73
2023/12/29 10:24:18;;;;;;;50.30;40.97;;;;;;;4.05;100.00;100735.59;5606820;31;33916;-73
2023/12/29 10:27:21;;;;;;;53.55;41.72;;;;;;;4.15;100.00;100720.78;5606741;31;33963;-74
2023/12/29 10:30:24;;;;;;;54.78;41.47;;;;;;;4.19;100.00;100719.59;5609658;31;34120;-74
2023/12/29 10:33:36;;;;;;;51.13;41.05;;;;;;;4.26;100.00;100718.19;5609663;31;34154;-73
2023/12/29 10:36:49;;;;;;;52.60;42.08;;;;;;;4.40;100.00;100702.19;5609449;31;34702;-74
2023/12/29 10:39:56;;;;;;;57.80;42.80;;;;;;;4.37;100.00;100708.50;5609286;31;34152;-74
2023/12/29 10:43:05;;;;;;;55.12;42.28;;;;;;;4.46;100.00;100706.94;5609417;31;34093;-73
2023/12/29 10:46:09;;;;;;;55.58;43.35;;;;;;;4.54;100.00;100703.72;5609429;31;35044;-74
2023/12/29 10:49:13;;;;;;;56.97;43.80;;;;;;;4.64;100.00;100695.00;5608640;31;34496;-74
2023/12/29 10:52:16;;;;;;;58.38;45.67;;;;;;;4.56;100.00;100699.16;5609443;31;35032;-74
2023/12/29 10:55:23;;;;;;;55.78;45.97;;;;;;;4.52;100.00;100695.94;5609600;31;34801;-75
2023/12/29 10:58:31;;;;;;;59.58;46.63;;;;;;;4.73;100.00;100698.66;5608819;31;34332;-75
2023/12/29 11:01:35;;;;;;;60.80;45.60;;;;;;;4.85;100.00;100697.66;5608884;31;34147;-74
2023/12/29 11:04:41;;;;;;;62.20;47.00;;;;;;;4.87;100.00;100687.87;5609770;31;34083;-73
2023/12/29 11:07:44;;;;;;;66.50;48.10;;;;;;;4.82;100.00;100688.25;5609427;31;34063;-73
2023/12/29 11:10:48;;;;;;;65.65;47.53;;;;;;;4.90;100.00;100682.38;5609376;31;34768;-74
2023/12/29 11:13:53;;;;;;;64.05;48.92;;;;;;;4.88;100.00;100673.78;5609734;31;34023;-74
2023/12/29 11:17:01;;;;;;;65.18;50.10;;;;;;;4.85;100.00;100683.69;5608373;31;35149;-73
2023/12/29 11:20:05;;;;;;;63.50;48.10;;;;;;;4.86;100.00;100670.44;5609252;31;35074;-73
2023/12/29 11:23:13;;;;;;;66.87;50.03;;;;;;;4.98;100.00;100661.56;5608247;31;34965;-74
2023/12/29 11:26:16;;;;;;;70.75;50.53;;;;;;;4.99;100.00;100659.75;5609257;31;34108;-74
2023/12/29 11:29:19;;;;;;;72.53;51.15;;;;;;;4.88;100.00;100657.19;5608815;31;34147;-74
2023/12/29 11:32:31;;;;;;;73.07;54.35;;;;;;;4.95;100.00;100655.69;5609083;31;34060;-73
2023/12/29 11:35:48;;;;;;;69.90;53.70;;;;;;;4.77;100.00;100653.63;5609174;31;34181;-74
2023/12/29 11:39:18;;;;;;;70.45;54.15;;;;;;;4.79;100.00;100656.94;5608490;31;34843;-74
2023/12/29 11:42:30;;;;;;;69.30;52.90;;;;;;;4.79;100.00;100653.50;5608984;31;34089;-74
2023/12/29 11:45:36;;;;;;;73.10;55.08;;;;;;;4.86;100.00;100640.69;5609092;31;34800;-75
2023/12/29 11:48:56;;;;;;;75.70;55.60;;;;;;;4.82;100.00;100630.44;5609110;31;34230;-74
2023/12/29 11:52:01;;;;;;;73.50;55.15;;;;;;;4.88;100.00;100629.09;5608777;31;34093;-74
2023/12/29 11:55:11;;;;;;;75.60;55.28;;;;;;;4.89;100.00;100614.97;5608852;31;33832;-74
2023/12/29 11:58:28;;;;;;;74.18;55.67;;;;;;;4.96;100.00;100623.19;5608855;31;34035;-74
2023/12/29 12:01:35;;;;;;;74.07;55.45;;;;;;;5.08;100.00;100615.12;5608713;31;34074;-74
2023/12/29 12:04:44;;;;;;;73.87;55.20;;;;;;;5.21;100.00;100607.06;5607924;31;34200;-74
2023/12/29 12:07:56;;;;;;;70.55;54.20;;;;;;;5.28;100.00;100610.03;5608777;31;34018;-74
2023/12/29 12:11:29;;;;;;;74.25;54.45;;;;;;;5.43;100.00;100609.56;5608817;31;34105;-74
2023/12/29 12:14:52;;;;;;;68.05;51.47;;;;;;;5.86;100.00;100603.25;5600005;31;34003;-75
2023/12/29 12:17:57;;;;;;;68.37;51.25;;;;;;;6.31;100.00;100599.31;5608714;31;34805;-74
2023/12/29 12:21:02;;;;;;;66.18;50.33;;;;;;;6.60;100.00;100595.88;5607854;31;34325;-74
2023/12/29 12:24:07;;;;;;;69.00;51.33;;;;;;;6.89;100.00;100600.22;5608567;31;34006;-75
2023/12/29 12:27:10;;;;;;;65.68;49.72;;;;;;;7.15;100.00;100602.28;5608519;31;34219;-74
2023/12/29 12:30:18;;;;;;;70.30;49.40;;;;;;;7.26;100.00;100594.22;5607886;31;34066;-75
2023/12/29 12:33:21;;;;;;;63.92;47.95;;;;;;;7.80;100.00;100593.50;5607178;31;34781;-75
2023/12/29 12:36:26;;;;;;;65.70;46.45;;;;;;;8.02;100.00;100587.88;5608665;31;35009;-75
2023/12/29 12:39:41;;;;;;;60.30;45.10;;;;;;;8.36;100.00;100587.31;5608428;31;34119;-73
2023/12/29 12:42:45;;;;;;;62.53;43.20;;;;;;;8.78;100.00;100584.91;5608434;31;33999;-75
2023/12/29 12:46:00;;;;;;;60.95;42.97;;;;;;;8.89;100.00;100579.41;5608952;31;34010;-75
2023/12/29 12:49:09;;;;;;;;;;;;;;;8.96;100.00;100583.91;5609294;31;34242;-75
2023/12/29 12:52:12;;;;;;;49.90;38.70;;;;;;;8.41;100.00;100591.16;5607981;31;35100;-74
2023/12/29 12:55:16;;;;;;;50.55;38.10;;;;;;;8.26;100.00;100584.69;5608708;31;34023;-76
2023/12/29 12:58:20;;;;;;;51.33;38.38;;;;;;;8.22;100.00;100589.44;5608397;31;34379;-73
2023/12/29 13:01:26;;;;;;;50.05;38.88;;;;;;;7.93;100.00;100595.84;5608267;31;34135;-73
2023/12/29 13:04:30;;;;;;;49.33;38.95;;;;;;;8.10;100.00;100598.53;5608516;31;34128;-74
2023/12/29 13:07:34;;;;;;;51.53;38.33;;;;;;;8.28;100.00;100588.00;5608806;31;34136;-74
2023/12/29 13:10:42;;;;;;;45.00;36.85;;;;;;;8.40;100.00;100583.38;5607357;31;34025;-74
2023/12/29 13:13:45;;;;;;;45.35;36.03;;;;;;;8.43;100.00;100573.31;5607330;31;34188;-74
2023/12/29 13:16:49;;;;;;;43.70;33.92;;;;;;;8.33;100.00;100571.75;5608089;31;34141;-75
2023/12/29 13:19:58;;;;;;;42.53;33.80;;;;;;;8.08;100.00;100571.44;5607596;31;34010;-74
2023/12/29 13:23:01;;;;;;;40.12;31.87;;;;;;;7.88;100.00;100561.94;5608093;31;34210;-74
2023/12/29 13:26:07;;;;;;;43.05;32.15;;;;;;;8.03;100.00;100568.41;5608177;31;34003;-74
2023/12/29 13:29:13;;;;;;;37.25;28.92;;;;;;;7.97;100.00;100566.34;5608191;31;34353;-74
2023/12/29 13:32:28;;;;;;;37.90;29.27;;;;;;;8.07;100.00;100567.13;5607997;31;34806;-74
2023/12/29 13:35:40;;;;;;;40.03;29.58;;;;;;;7.99;100.00;100572.28;5608196;31;35485;-73
2023/12/29 13:38:58;;;;;;;36.17;26.77;;;;;;;8.05;100.00;100571.72;5607059;31;34778;-73
2023/12/29 13:42:07;;;;;;;33.25;23.42;;;;;;;8.06;100.00;100576.03;5607559;31;33991;-73
2023/12/29 13:45:12;;;;;;;28.23;21.50;;;;;;;8.22;100.00;100564.81;5607900;31;34280;-74
2023/12/29 13:48:16;;;;;;;27.40;20.15;;;;;;;8.25;100.00;100565.34;5607873;31;34742;-74
2023/12/29 13:51:28;;;;;;;25.55;19.25;;;;;;;8.09;100.00;100559.88;5607719;31;34941;-74
2023/12/29 13:54:43;;;;;;;26.92;19.27;;;;;;;8.14;100.00;100562.91;5607537;31;33113;-74
2023/12/29 13:57:46;;;;;;;24.83;19.05;;;;;;;8.10;100.00;100563.34;5607500;31;34725;-73